sensor_id;sensor_type;location;lat;lon;timestamp;temperature;humidity
16513;DHT22;8369;48.030;11.598;2023-11-19T00:01:09;5.20;99.90
16513;DHT22;8369;48.030;11.598;2023-11-19T00:03:36;5.20;99.90
16513;DHT22;8369;48.030;11.598;2023-11-19T00:06:02;5.20;99.90
16513;DHT22;8369;48.030;11.598;2023-11-19T00:08:30;5.20;99.90
16513;DHT22;8369;48.030;11.598;2023-11-19T00:10:56;5.20;99.90
16513;DHT22;8369;48.030;11.598;2023-11-19T00:13:22;5.20;99.90
16513;DHT22;8369;48.030;11.598;2023-11-19T00:15:48;5.30;99.90
16513;DHT22;8369;48.030;11.598;2023-11-19T00:18:14;5.30;99.90
16513;DHT22;8369;48.030;11.598;2023-11-19T00:20:43;5.30;99.90
16513;DHT22;8369;48.030;11.598;2023-11-19T00:23:10;5.30;99.90
16513;DHT22;8369;48.030;11.598;2023-11-19T00:25:36;5.30;99.90
16513;DHT22;8369;48.030;11.598;2023-11-19T00:28:04;5.30;99.90
16513;DHT22;8369;48.030;11.598;2023-11-19T00:30:30;5.40;99.90
16513;DHT22;8369;48.030;11.598;2023-11-19T00:32:56;5.40;99.90
16513;DHT22;8369;48.030;11.598;2023-11-19T00:35:27;5.40;99.90
16513;DHT22;8369;48.030;11.598;2023-11-19T00:37:53;5.40;99.90
16513;DHT22;8369;48.030;11.598;2023-11-19T00:40:21;5.40;99.90
16513;DHT22;8369;48.030;11.598;2023-11-19T00:42:48;5.40;99.90
16513;DHT22;8369;48.030;11.598;2023-11-19T00:45:15;5.40;99.90
16513;DHT22;8369;48.030;11.598;2023-11-19T00:47:41;5.40;99.90
16513;DHT22;8369;48.030;11.598;2023-11-19T00:50:08;5.50;99.90
16513;DHT22;8369;48.030;11.598;2023-11-19T00:52:38;5.50;99.90
16513;DHT22;8369;48.030;11.598;2023-11-19T00:55:04;5.50;99.90
16513;DHT22;8369;48.030;11.598;2023-11-19T00:57:31;5.50;99.90
16513;DHT22;8369;48.030;11.598;2023-11-19T01:00:01;5.50;99.90
16513;DHT22;8369;48.030;11.598;2023-11-19T01:02:28;5.50;99.90
16513;DHT22;8369;48.030;11.598;2023-11-19T01:04:55;5.50;99.90
16513;DHT22;8369;48.030;11.598;2023-11-19T01:07:21;5.60;99.90
16513;DHT22;8369;48.030;11.598;2023-11-19T01:09:47;5.60;99.90
16513;DHT22;8369;48.030;11.598;2023-11-19T01:12:14;5.60;99.90
16513;DHT22;8369;48.030;11.598;2023-11-19T01:14:40;5.60;99.90
16513;DHT22;8369;48.030;11.598;2023-11-19T01:17:06;5.60;99.90
16513;DHT22;8369;48.030;11.598;2023-11-19T01:19:33;5.60;99.90
16513;DHT22;8369;48.030;11.598;2023-11-19T01:22:00;5.70;99.90
16513;DHT22;8369;48.030;11.598;2023-11-19T01:24:26;5.70;99.90
16513;DHT22;8369;48.030;11.598;2023-11-19T01:26:54;5.70;99.90
16513;DHT22;8369;48.030;11.598;2023-11-19T01:29:20;5.70;99.90
16513;DHT22;8369;48.030;11.598;2023-11-19T01:31:47;5.70;99.90
16513;DHT22;8369;48.030;11.598;2023-11-19T01:34:13;5.70;99.90
16513;DHT22;8369;48.030;11.598;2023-11-19T01:36:39;5.80;99.90
16513;DHT22;8369;48.030;11.598;2023-11-19T01:39:05;5.80;99.90
16513;DHT22;8369;48.030;11.598;2023-11-19T01:41:37;5.80;99.90
16513;DHT22;8369;48.030;11.598;2023-11-19T01:44:08;5.80;99.90
16513;DHT22;8369;48.030;11.598;2023-11-19T01:46:35;5.80;99.90
16513;DHT22;8369;48.030;11.598;2023-11-19T01:49:02;5.80;99.90
16513;DHT22;8369;48.030;11.598;2023-11-19T01:51:29;5.90;99.90
16513;DHT22;8369;48.030;11.598;2023-11-19T01:53:55;5.90;99.90
16513;DHT22;8369;48.030;11.598;2023-11-19T01:56:24;5.90;99.90
16513;DHT22;8369;48.030;11.598;2023-11-19T01:58:51;6.00;99.90
16513;DHT22;8369;48.030;11.598;2023-11-19T02:01:18;6.00;99.90
16513;DHT22;8369;48.030;11.598;2023-11-19T02:03:44;6.00;99.90
16513;DHT22;8369;48.030;11.598;2023-11-19T02:06:10;6.10;99.90
16513;DHT22;8369;48.030;11.598;2023-11-19T02:08:36;6.10;99.90
16513;DHT22;8369;48.030;11.598;2023-11-19T02:11:05;6.20;99.90
16513;DHT22;8369;48.030;11.598;2023-11-19T02:13:34;6.20;99.90
16513;DHT22;8369;48.030;11.598;2023-11-19T02:16:03;6.20;99.90
16513;DHT22;8369;48.030;11.598;2023-11-19T02:22:12;6.30;99.90
16513;DHT22;8369;48.030;11.598;2023-11-19T02:24:38;6.40;99.90
16513;DHT22;8369;48.030;11.598;2023-11-19T02:27:13;6.40;99.90
16513;DHT22;8369;48.030;11.598;2023-11-19T02:29:41;6.40;99.90
16513;DHT22;8369;48.030;11.598;2023-11-19T02:32:08;6.40;99.90
16513;DHT22;8369;48.030;11.598;2023-11-19T02:34:35;6.50;99.90
16513;DHT22;8369;48.030;11.598;2023-11-19T02:37:02;6.50;99.90
16513;DHT22;8369;48.030;11.598;2023-11-19T02:39:28;6.50;99.90
16513;DHT22;8369;48.030;11.598;2023-11-19T02:41:55;6.50;99.90
16513;DHT22;8369;48.030;11.598;2023-11-19T02:44:21;6.60;99.90
16513;DHT22;8369;48.030;11.598;2023-11-19T02:46:47;6.60;99.90
16513;DHT22;8369;48.030;11.598;2023-11-19T02:49:15;6.60;99.90
16513;DHT22;8369;48.030;11.598;2023-11-19T02:51:42;6.70;99.90
16513;DHT22;8369;48.030;11.598;2023-11-19T02:54:08;6.70;99.90
16513;DHT22;8369;48.030;11.598;2023-11-19T02:56:36;6.70;99.90
16513;DHT22;8369;48.030;11.598;2023-11-19T02:59:10;6.70;99.90
16513;DHT22;8369;48.030;11.598;2023-11-19T03:01:53;6.70;99.90
16513;DHT22;8369;48.030;11.598;2023-11-19T03:04:20;6.80;99.90
16513;DHT22;8369;48.030;11.598;2023-11-19T03:06:47;6.80;99.90
16513;DHT22;8369;48.030;11.598;2023-11-19T03:09:28;6.80;99.90
16513;DHT22;8369;48.030;11.598;2023-11-19T03:11:55;6.90;99.90
16513;DHT22;8369;48.030;11.598;2023-11-19T03:14:21;6.90;99.90
16513;DHT22;8369;48.030;11.598;2023-11-19T03:16:49;6.90;99.90
16513;DHT22;8369;48.030;11.598;2023-11-19T03:19:15;6.90;99.90
16513;DHT22;8369;48.030;11.598;2023-11-19T03:21:41;7.00;99.90
16513;DHT22;8369;48.030;11.598;2023-11-19T03:24:08;7.00;99.90
16513;DHT22;8369;48.030;11.598;2023-11-19T03:26:34;7.00;99.90
16513;DHT22;8369;48.030;11.598;2023-11-19T03:29:01;7.10;99.90
16513;DHT22;8369;48.030;11.598;2023-11-19T03:31:27;7.10;99.90
16513;DHT22;8369;48.030;11.598;2023-11-19T03:33:53;7.10;99.90
16513;DHT22;8369;48.030;11.598;2023-11-19T03:36:19;7.10;99.90
16513;DHT22;8369;48.030;11.598;2023-11-19T03:38:46;7.10;99.90
16513;DHT22;8369;48.030;11.598;2023-11-19T03:41:15;7.20;99.90
16513;DHT22;8369;48.030;11.598;2023-11-19T03:43:43;7.20;99.90
16513;DHT22;8369;48.030;11.598;2023-11-19T03:48:46;7.20;99.90
16513;DHT22;8369;48.030;11.598;2023-11-19T03:51:12;7.20;99.90
16513;DHT22;8369;48.030;11.598;2023-11-19T03:53:47;7.30;99.90
16513;DHT22;8369;48.030;11.598;2023-11-19T03:56:13;7.30;99.90
16513;DHT22;8369;48.030;11.598;2023-11-19T03:58:40;7.30;99.90
16513;DHT22;8369;48.030;11.598;2023-11-19T04:01:12;7.30;99.90
16513;DHT22;8369;48.030;11.598;2023-11-19T04:03:41;7.30;99.90
16513;DHT22;8369;48.030;11.598;2023-11-19T04:06:08;7.40;99.90
16513;DHT22;8369;48.030;11.598;2023-11-19T04:08:34;7.50;99.90
16513;DHT22;8369;48.030;11.598;2023-11-19T04:11:03;7.50;99.90
16513;DHT22;8369;48.030;11.598;2023-11-19T04:13:30;7.40;99.90
16513;DHT22;8369;48.030;11.598;2023-11-19T04:15:56;7.50;99.90
16513;DHT22;8369;48.030;11.598;2023-11-19T04:18:22;7.50;99.90
16513;DHT22;8369;48.030;11.598;2023-11-19T04:20:49;7.50;99.90
16513;DHT22;8369;48.030;11.598;2023-11-19T04:23:16;7.60;99.90
16513;DHT22;8369;48.030;11.598;2023-11-19T04:25:42;7.60;99.90
16513;DHT22;8369;48.030;11.598;2023-11-19T04:28:09;7.70;99.90
16513;DHT22;8369;48.030;11.598;2023-11-19T04:30:36;7.70;99.90
16513;DHT22;8369;48.030;11.598;2023-11-19T04:33:03;7.80;99.90
16513;DHT22;8369;48.030;11.598;2023-11-19T04:35:30;7.80;99.90
16513;DHT22;8369;48.030;11.598;2023-11-19T04:37:56;7.90;99.90
16513;DHT22;8369;48.030;11.598;2023-11-19T04:40:24;7.90;99.90
16513;DHT22;8369;48.030;11.598;2023-11-19T04:42:50;7.90;99.90
16513;DHT22;8369;48.030;11.598;2023-11-19T04:45:16;8.00;99.90
16513;DHT22;8369;48.030;11.598;2023-11-19T04:47:43;8.10;99.90
16513;DHT22;8369;48.030;11.598;2023-11-19T04:50:11;8.10;99.90
16513;DHT22;8369;48.030;11.598;2023-11-19T04:52:38;8.20;99.90
16513;DHT22;8369;48.030;11.598;2023-11-19T04:55:12;8.30;99.90
16513;DHT22;8369;48.030;11.598;2023-11-19T04:57:38;8.30;99.90
16513;DHT22;8369;48.030;11.598;2023-11-19T05:00:05;8.40;99.90
16513;DHT22;8369;48.030;11.598;2023-11-19T05:02:31;8.60;99.90
16513;DHT22;8369;48.030;11.598;2023-11-19T05:04:58;8.60;99.90
16513;DHT22;8369;48.030;11.598;2023-11-19T05:07:24;8.70;99.90
16513;DHT22;8369;48.030;11.598;2023-11-19T05:09:50;8.70;99.90
16513;DHT22;8369;48.030;11.598;2023-11-19T05:12:17;8.90;99.90
16513;DHT22;8369;48.030;11.598;2023-11-19T05:14:43;8.90;99.90
16513;DHT22;8369;48.030;11.598;2023-11-19T05:17:15;9.00;99.90
16513;DHT22;8369;48.030;11.598;2023-11-19T05:19:42;9.00;99.90
16513;DHT22;8369;48.030;11.598;2023-11-19T05:22:08;9.10;99.90
16513;DHT22;8369;48.030;11.598;2023-11-19T05:24:34;9.10;99.90
16513;DHT22;8369;48.030;11.598;2023-11-19T05:27:02;9.10;99.90
16513;DHT22;8369;48.030;11.598;2023-11-19T05:29:28;9.20;99.90
16513;DHT22;8369;48.030;11.598;2023-11-19T05:31:55;9.30;99.90
16513;DHT22;8369;48.030;11.598;2023-11-19T05:34:21;9.40;99.90
16513;DHT22;8369;48.030;11.598;2023-11-19T05:36:47;9.40;99.90
16513;DHT22;8369;48.030;11.598;2023-11-19T05:39:13;9.40;99.90
16513;DHT22;8369;48.030;11.598;2023-11-19T05:41:40;9.40;99.90
16513;DHT22;8369;48.030;11.598;2023-11-19T05:44:06;9.40;99.90
16513;DHT22;8369;48.030;11.598;2023-11-19T05:46:32;9.40;99.90
16513;DHT22;8369;48.030;11.598;2023-11-19T05:48:58;9.40;99.90
16513;DHT22;8369;48.030;11.598;2023-11-19T05:51:24;9.50;99.90
16513;DHT22;8369;48.030;11.598;2023-11-19T05:53:50;9.50;99.90
16513;DHT22;8369;48.030;11.598;2023-11-19T05:56:16;9.50;99.90
16513;DHT22;8369;48.030;11.598;2023-11-19T05:58:47;9.50;99.90
16513;DHT22;8369;48.030;11.598;2023-11-19T06:01:14;9.50;99.90
16513;DHT22;8369;48.030;11.598;2023-11-19T06:03:40;9.50;99.90
16513;DHT22;8369;48.030;11.598;2023-11-19T06:06:06;9.50;99.90
16513;DHT22;8369;48.030;11.598;2023-11-19T06:08:32;9.50;99.90
16513;DHT22;8369;48.030;11.598;2023-11-19T06:10:59;9.50;99.90
16513;DHT22;8369;48.030;11.598;2023-11-19T06:13:26;9.50;99.90
16513;DHT22;8369;48.030;11.598;2023-11-19T06:15:52;9.60;99.90
16513;DHT22;8369;48.030;11.598;2023-11-19T06:18:18;9.60;99.90
16513;DHT22;8369;48.030;11.598;2023-11-19T06:20:46;9.60;99.90
16513;DHT22;8369;48.030;11.598;2023-11-19T06:23:12;9.60;99.90
16513;DHT22;8369;48.030;11.598;2023-11-19T06:25:39;9.50;99.90
16513;DHT22;8369;48.030;11.598;2023-11-19T06:28:05;9.60;99.90
16513;DHT22;8369;48.030;11.598;2023-11-19T06:30:30;9.60;99.90
16513;DHT22;8369;48.030;11.598;2023-11-19T06:32:58;9.60;99.90
16513;DHT22;8369;48.030;11.598;2023-11-19T06:35:26;9.60;99.90
16513;DHT22;8369;48.030;11.598;2023-11-19T06:37:52;9.60;99.90
16513;DHT22;8369;48.030;11.598;2023-11-19T06:40:18;9.70;99.90
16513;DHT22;8369;48.030;11.598;2023-11-19T06:42:44;9.70;99.90
16513;DHT22;8369;48.030;11.598;2023-11-19T06:45:10;9.60;99.90
16513;DHT22;8369;48.030;11.598;2023-11-19T06:47:37;9.60;99.90
16513;DHT22;8369;48.030;11.598;2023-11-19T06:50:03;9.70;99.90
16513;DHT22;8369;48.030;11.598;2023-11-19T06:52:31;9.70;99.90
16513;DHT22;8369;48.030;11.598;2023-11-19T06:54:57;9.60;99.90
16513;DHT22;8369;48.030;11.598;2023-11-19T06:57:23;9.60;99.90
16513;DHT22;8369;48.030;11.598;2023-11-19T06:59:49;9.60;99.90
16513;DHT22;8369;48.030;11.598;2023-11-19T07:02:16;9.60;99.90
16513;DHT22;8369;48.030;11.598;2023-11-19T07:04:42;9.60;99.90
16513;DHT22;8369;48.030;11.598;2023-11-19T07:07:08;9.60;99.90
16513;DHT22;8369;48.030;11.598;2023-11-19T07:09:33;9.60;99.90
16513;DHT22;8369;48.030;11.598;2023-11-19T07:12:00;9.60;99.90
16513;DHT22;8369;48.030;11.598;2023-11-19T07:14:27;9.60;99.90
16513;DHT22;8369;48.030;11.598;2023-11-19T07:16:55;9.60;99.90
16513;DHT22;8369;48.030;11.598;2023-11-19T07:19:21;9.50;99.90
16513;DHT22;8369;48.030;11.598;2023-11-19T07:21:47;9.50;99.90
16513;DHT22;8369;48.030;11.598;2023-11-19T07:24:13;9.60;99.90
16513;DHT22;8369;48.030;11.598;2023-11-19T07:26:47;9.50;99.90
16513;DHT22;8369;48.030;11.598;2023-11-19T07:29:16;9.50;99.90
16513;DHT22;8369;48.030;11.598;2023-11-19T07:31:45;9.50;99.90
16513;DHT22;8369;48.030;11.598;2023-11-19T07:34:11;9.50;99.90
16513;DHT22;8369;48.030;11.598;2023-11-19T07:36:37;9.60;99.90
16513;DHT22;8369;48.030;11.598;2023-11-19T07:39:04;9.60;99.90
16513;DHT22;8369;48.030;11.598;2023-11-19T07:41:31;9.60;99.90
16513;DHT22;8369;48.030;11.598;2023-11-19T07:43:57;9.70;99.90
16513;DHT22;8369;48.030;11.598;2023-11-19T07:46:23;9.70;99.90
16513;DHT22;8369;48.030;11.598;2023-11-19T07:48:51;9.70;99.90
16513;DHT22;8369;48.030;11.598;2023-11-19T07:51:18;9.70;99.90
16513;DHT22;8369;48.030;11.598;2023-11-19T07:53:45;9.70;99.90
16513;DHT22;8369;48.030;11.598;2023-11-19T07:56:11;9.70;99.90
16513;DHT22;8369;48.030;11.598;2023-11-19T07:58:37;9.70;99.90
16513;DHT22;8369;48.030;11.598;2023-11-19T08:01:04;9.70;99.90
16513;DHT22;8369;48.030;11.598;2023-11-19T08:03:31;9.70;99.90
16513;DHT22;8369;48.030;11.598;2023-11-19T08:06:00;9.70;99.90
16513;DHT22;8369;48.030;11.598;2023-11-19T08:08:27;9.80;99.90
16513;DHT22;8369;48.030;11.598;2023-11-19T08:10:56;9.80;99.90
16513;DHT22;8369;48.030;11.598;2023-11-19T08:13:24;9.80;99.90
16513;DHT22;8369;48.030;11.598;2023-11-19T08:15:51;9.90;99.90
16513;DHT22;8369;48.030;11.598;2023-11-19T08:18:17;9.80;99.90
16513;DHT22;8369;48.030;11.598;2023-11-19T08:20:45;9.90;99.90
16513;DHT22;8369;48.030;11.598;2023-11-19T08:23:11;9.80;99.90
16513;DHT22;8369;48.030;11.598;2023-11-19T08:25:37;9.90;99.90
16513;DHT22;8369;48.030;11.598;2023-11-19T08:28:03;9.90;99.90
16513;DHT22;8369;48.030;11.598;2023-11-19T08:30:30;10.00;99.90
16513;DHT22;8369;48.030;11.598;2023-11-19T08:32:56;9.90;99.90
16513;DHT22;8369;48.030;11.598;2023-11-19T08:35:22;9.90;99.90
16513;DHT22;8369;48.030;11.598;2023-11-19T08:37:49;9.90;99.90
16513;DHT22;8369;48.030;11.598;2023-11-19T08:40:15;10.00;99.90
16513;DHT22;8369;48.030;11.598;2023-11-19T08:42:41;10.00;99.90
16513;DHT22;8369;48.030;11.598;2023-11-19T08:45:08;10.00;99.90
16513;DHT22;8369;48.030;11.598;2023-11-19T08:47:36;10.00;99.90
16513;DHT22;8369;48.030;11.598;2023-11-19T08:50:03;10.10;99.90
16513;DHT22;8369;48.030;11.598;2023-11-19T08:52:30;10.20;99.90
16513;DHT22;8369;48.030;11.598;2023-11-19T08:54:56;10.20;99.90
16513;DHT22;8369;48.030;11.598;2023-11-19T08:57:23;10.20;99.90
16513;DHT22;8369;48.030;11.598;2023-11-19T08:59:49;10.30;99.90
16513;DHT22;8369;48.030;11.598;2023-11-19T09:02:15;10.30;99.90
16513;DHT22;8369;48.030;11.598;2023-11-19T09:04:43;10.30;99.90
16513;DHT22;8369;48.030;11.598;2023-11-19T09:07:09;10.40;99.90
16513;DHT22;8369;48.030;11.598;2023-11-19T09:09:35;10.30;99.90
16513;DHT22;8369;48.030;11.598;2023-11-19T09:12:02;10.40;99.90
16513;DHT22;8369;48.030;11.598;2023-11-19T09:14:32;10.40;99.90
16513;DHT22;8369;48.030;11.598;2023-11-19T09:16:57;10.40;99.90
16513;DHT22;8369;48.030;11.598;2023-11-19T09:19:24;10.50;99.90
16513;DHT22;8369;48.030;11.598;2023-11-19T09:21:52;10.50;99.90
16513;DHT22;8369;48.030;11.598;2023-11-19T09:24:20;10.50;99.90
16513;DHT22;8369;48.030;11.598;2023-11-19T09:26:46;10.50;99.90
16513;DHT22;8369;48.030;11.598;2023-11-19T09:29:14;10.50;99.90
16513;DHT22;8369;48.030;11.598;2023-11-19T09:31:40;10.50;99.90
16513;DHT22;8369;48.030;11.598;2023-11-19T09:34:06;10.50;99.90
16513;DHT22;8369;48.030;11.598;2023-11-19T09:36:33;10.50;99.90
16513;DHT22;8369;48.030;11.598;2023-11-19T09:38:59;10.50;99.90
16513;DHT22;8369;48.030;11.598;2023-11-19T09:41:30;10.60;99.90
16513;DHT22;8369;48.030;11.598;2023-11-19T09:43:57;10.60;99.90
16513;DHT22;8369;48.030;11.598;2023-11-19T09:46:23;10.60;99.90
16513;DHT22;8369;48.030;11.598;2023-11-19T09:48:53;10.70;99.90
16513;DHT22;8369;48.030;11.598;2023-11-19T09:51:22;10.70;99.90
16513;DHT22;8369;48.030;11.598;2023-11-19T09:53:48;10.70;99.90
16513;DHT22;8369;48.030;11.598;2023-11-19T09:56:15;10.70;99.90
16513;DHT22;8369;48.030;11.598;2023-11-19T09:58:44;10.60;99.90
16513;DHT22;8369;48.030;11.598;2023-11-19T10:01:11;10.70;99.90
16513;DHT22;8369;48.030;11.598;2023-11-19T10:03:39;10.70;99.90
16513;DHT22;8369;48.030;11.598;2023-11-19T10:06:11;10.70;99.90
16513;DHT22;8369;48.030;11.598;2023-11-19T10:08:38;10.80;99.90
16513;DHT22;8369;48.030;11.598;2023-11-19T10:11:08;10.80;99.90
16513;DHT22;8369;48.030;11.598;2023-11-19T10:13:37;10.80;99.90
16513;DHT22;8369;48.030;11.598;2023-11-19T10:16:12;10.80;99.90
16513;DHT22;8369;48.030;11.598;2023-11-19T10:18:48;10.80;99.90
16513;DHT22;8369;48.030;11.598;2023-11-19T10:21:19;10.90;99.90
16513;DHT22;8369;48.030;11.598;2023-11-19T10:23:49;11.00;99.90
16513;DHT22;8369;48.030;11.598;2023-11-19T10:26:16;11.00;99.90
16513;DHT22;8369;48.030;11.598;2023-11-19T10:28:42;11.10;99.90
16513;DHT22;8369;48.030;11.598;2023-11-19T10:31:16;11.10;99.90
16513;DHT22;8369;48.030;11.598;2023-11-19T10:33:43;11.20;99.90
16513;DHT22;8369;48.030;11.598;2023-11-19T10:36:13;11.20;99.90
16513;DHT22;8369;48.030;11.598;2023-11-19T10:38:40;11.30;99.90
16513;DHT22;8369;48.030;11.598;2023-11-19T10:41:07;11.30;99.90
16513;DHT22;8369;48.030;11.598;2023-11-19T10:43:43;11.30;99.90
16513;DHT22;8369;48.030;11.598;2023-11-19T10:46:14;11.30;99.90
16513;DHT22;8369;48.030;11.598;2023-11-19T10:48:40;11.40;99.90
16513;DHT22;8369;48.030;11.598;2023-11-19T10:51:07;11.40;99.90
16513;DHT22;8369;48.030;11.598;2023-11-19T10:53:38;11.40;99.90
16513;DHT22;8369;48.030;11.598;2023-11-19T10:56:10;11.40;99.90
16513;DHT22;8369;48.030;11.598;2023-11-19T10:58:37;11.60;99.90
16513;DHT22;8369;48.030;11.598;2023-11-19T11:01:20;11.50;99.90
16513;DHT22;8369;48.030;11.598;2023-11-19T11:03:51;11.50;99.90
16513;DHT22;8369;48.030;11.598;2023-11-19T11:06:19;11.50;99.90
16513;DHT22;8369;48.030;11.598;2023-11-19T11:08:48;11.50;99.90
16513;DHT22;8369;48.030;11.598;2023-11-19T11:11:20;11.50;99.90
16513;DHT22;8369;48.030;11.598;2023-11-19T11:13:51;11.60;99.90
16513;DHT22;8369;48.030;11.598;2023-11-19T11:16:19;11.50;99.90
16513;DHT22;8369;48.030;11.598;2023-11-19T11:18:47;11.60;99.90
16513;DHT22;8369;48.030;11.598;2023-11-19T11:21:22;11.60;99.90
16513;DHT22;8369;48.030;11.598;2023-11-19T11:29:37;11.80;99.90
16513;DHT22;8369;48.030;11.598;2023-11-19T11:32:43;11.80;99.90
16513;DHT22;8369;48.030;11.598;2023-11-19T11:38:01;11.90;99.90
16513;DHT22;8369;48.030;11.598;2023-11-19T11:40:28;12.00;99.90
16513;DHT22;8369;48.030;11.598;2023-11-19T11:42:54;12.00;99.90
16513;DHT22;8369;48.030;11.598;2023-11-19T11:45:35;11.90;99.90
16513;DHT22;8369;48.030;11.598;2023-11-19T11:48:09;11.90;99.90
16513;DHT22;8369;48.030;11.598;2023-11-19T11:50:50;11.90;99.90
16513;DHT22;8369;48.030;11.598;2023-11-19T11:53:18;11.90;99.90
16513;DHT22;8369;48.030;11.598;2023-11-19T11:58:41;12.00;99.90
16513;DHT22;8369;48.030;11.598;2023-11-19T12:01:08;12.10;99.90
16513;DHT22;8369;48.030;11.598;2023-11-19T12:03:37;12.20;99.90
16513;DHT22;8369;48.030;11.598;2023-11-19T12:06:04;12.20;99.90
16513;DHT22;8369;48.030;11.598;2023-11-19T12:08:30;12.20;99.90
16513;DHT22;8369;48.030;11.598;2023-11-19T12:10:59;12.40;99.90
16513;DHT22;8369;48.030;11.598;2023-11-19T12:13:54;12.40;99.90
16513;DHT22;8369;48.030;11.598;2023-11-19T12:16:25;12.50;99.90
16513;DHT22;8369;48.030;11.598;2023-11-19T12:18:54;12.50;99.90
16513;DHT22;8369;48.030;11.598;2023-11-19T12:21:30;12.50;99.90
16513;DHT22;8369;48.030;11.598;2023-11-19T12:23:58;12.50;99.90
16513;DHT22;8369;48.030;11.598;2023-11-19T12:26:34;12.50;99.90
16513;DHT22;8369;48.030;11.598;2023-11-19T12:29:01;12.60;99.90
16513;DHT22;8369;48.030;11.598;2023-11-19T12:31:30;12.60;99.90
16513;DHT22;8369;48.030;11.598;2023-11-19T12:33:56;12.60;99.90
16513;DHT22;8369;48.030;11.598;2023-11-19T12:36:22;12.70;99.90
16513;DHT22;8369;48.030;11.598;2023-11-19T12:38:48;12.80;99.90
16513;DHT22;8369;48.030;11.598;2023-11-19T12:41:15;12.80;99.90
16513;DHT22;8369;48.030;11.598;2023-11-19T12:43:47;12.90;99.90
16513;DHT22;8369;48.030;11.598;2023-11-19T12:46:20;13.00;99.90
16513;DHT22;8369;48.030;11.598;2023-11-19T12:48:48;13.00;99.90
16513;DHT22;8369;48.030;11.598;2023-11-19T12:51:14;13.00;99.90
16513;DHT22;8369;48.030;11.598;2023-11-19T12:53:53;12.90;99.90
16513;DHT22;8369;48.030;11.598;2023-11-19T12:56:24;12.80;99.90
16513;DHT22;8369;48.030;11.598;2023-11-19T12:58:50;12.80;99.90
16513;DHT22;8369;48.030;11.598;2023-11-19T13:01:18;12.70;99.90
16513;DHT22;8369;48.030;11.598;2023-11-19T13:03:45;12.60;99.90
16513;DHT22;8369;48.030;11.598;2023-11-19T13:06:14;12.60;99.90
16513;DHT22;8369;48.030;11.598;2023-11-19T13:08:43;12.50;99.90
16513;DHT22;8369;48.030;11.598;2023-11-19T13:11:12;12.50;99.90
16513;DHT22;8369;48.030;11.598;2023-11-19T13:14:00;12.30;99.90
16513;DHT22;8369;48.030;11.598;2023-11-19T13:16:27;12.20;99.90
16513;DHT22;8369;48.030;11.598;2023-11-19T13:18:54;12.20;99.90
16513;DHT22;8369;48.030;11.598;2023-11-19T13:21:21;12.10;99.90
16513;DHT22;8369;48.030;11.598;2023-11-19T13:23:47;12.10;99.90
16513;DHT22;8369;48.030;11.598;2023-11-19T13:26:13;12.00;99.90
16513;DHT22;8369;48.030;11.598;2023-11-19T13:28:39;12.00;99.90
16513;DHT22;8369;48.030;11.598;2023-11-19T13:31:07;11.90;99.90
16513;DHT22;8369;48.030;11.598;2023-11-19T13:33:33;11.90;99.90
16513;DHT22;8369;48.030;11.598;2023-11-19T13:36:00;11.90;99.90
16513;DHT22;8369;48.030;11.598;2023-11-19T13:38:33;11.90;99.90
16513;DHT22;8369;48.030;11.598;2023-11-19T13:41:00;12.00;99.90
16513;DHT22;8369;48.030;11.598;2023-11-19T13:43:26;12.00;99.90
16513;DHT22;8369;48.030;11.598;2023-11-19T13:45:55;11.90;99.90
16513;DHT22;8369;48.030;11.598;2023-11-19T13:48:24;11.90;99.90
16513;DHT22;8369;48.030;11.598;2023-11-19T13:50:50;11.90;99.90
16513;DHT22;8369;48.030;11.598;2023-11-19T13:53:17;11.90;99.90
16513;DHT22;8369;48.030;11.598;2023-11-19T13:55:44;11.90;99.90
16513;DHT22;8369;48.030;11.598;2023-11-19T13:58:10;11.90;99.90
16513;DHT22;8369;48.030;11.598;2023-11-19T14:00:37;11.90;99.90
16513;DHT22;8369;48.030;11.598;2023-11-19T14:03:03;11.80;99.90
16513;DHT22;8369;48.030;11.598;2023-11-19T14:05:31;11.80;99.90
16513;DHT22;8369;48.030;11.598;2023-11-19T14:07:57;11.80;99.90
16513;DHT22;8369;48.030;11.598;2023-11-19T14:10:24;11.90;99.90
16513;DHT22;8369;48.030;11.598;2023-11-19T14:12:51;11.90;99.90
16513;DHT22;8369;48.030;11.598;2023-11-19T14:15:17;11.90;99.90
16513;DHT22;8369;48.030;11.598;2023-11-19T14:17:44;11.90;99.90
16513;DHT22;8369;48.030;11.598;2023-11-19T14:20:13;11.90;99.90
16513;DHT22;8369;48.030;11.598;2023-11-19T14:22:40;11.80;99.90
16513;DHT22;8369;48.030;11.598;2023-11-19T14:25:07;11.80;99.90
16513;DHT22;8369;48.030;11.598;2023-11-19T14:27:44;11.90;99.90
16513;DHT22;8369;48.030;11.598;2023-11-19T14:30:13;11.90;99.90
16513;DHT22;8369;48.030;11.598;2023-11-19T14:32:40;11.90;99.90
16513;DHT22;8369;48.030;11.598;2023-11-19T14:35:08;11.90;99.90
16513;DHT22;8369;48.030;11.598;2023-11-19T14:37:34;11.90;99.90
16513;DHT22;8369;48.030;11.598;2023-11-19T14:40:01;11.90;99.90
16513;DHT22;8369;48.030;11.598;2023-11-19T14:42:30;11.90;99.90
16513;DHT22;8369;48.030;11.598;2023-11-19T14:44:56;12.00;99.90
16513;DHT22;8369;48.030;11.598;2023-11-19T14:47:22;12.00;99.90
16513;DHT22;8369;48.030;11.598;2023-11-19T14:49:50;12.00;99.90
16513;DHT22;8369;48.030;11.598;2023-11-19T14:52:17;12.00;99.90
16513;DHT22;8369;48.030;11.598;2023-11-19T14:54:59;12.00;99.90
16513;DHT22;8369;48.030;11.598;2023-11-19T14:57:25;12.00;99.90
16513;DHT22;8369;48.030;11.598;2023-11-19T14:59:51;12.00;99.90
16513;DHT22;8369;48.030;11.598;2023-11-19T15:02:18;11.90;99.90
16513;DHT22;8369;48.030;11.598;2023-11-19T15:04:44;11.80;99.90
16513;DHT22;8369;48.030;11.598;2023-11-19T15:07:10;11.70;99.90
16513;DHT22;8369;48.030;11.598;2023-11-19T15:09:37;11.60;99.90
16513;DHT22;8369;48.030;11.598;2023-11-19T15:12:04;11.60;99.90
16513;DHT22;8369;48.030;11.598;2023-11-19T15:14:31;11.60;99.90
16513;DHT22;8369;48.030;11.598;2023-11-19T15:16:57;11.50;99.90
16513;DHT22;8369;48.030;11.598;2023-11-19T15:19:23;11.50;99.90
16513;DHT22;8369;48.030;11.598;2023-11-19T15:21:49;11.50;99.90
16513;DHT22;8369;48.030;11.598;2023-11-19T15:24:15;11.40;99.90
16513;DHT22;8369;48.030;11.598;2023-11-19T15:26:42;11.40;99.90
16513;DHT22;8369;48.030;11.598;2023-11-19T15:29:08;11.30;99.90
16513;DHT22;8369;48.030;11.598;2023-11-19T15:31:35;11.30;99.90
16513;DHT22;8369;48.030;11.598;2023-11-19T15:34:02;11.20;99.90
16513;DHT22;8369;48.030;11.598;2023-11-19T15:36:28;11.20;99.90
16513;DHT22;8369;48.030;11.598;2023-11-19T15:38:54;11.20;99.90
16513;DHT22;8369;48.030;11.598;2023-11-19T15:41:20;11.10;99.90
16513;DHT22;8369;48.030;11.598;2023-11-19T15:43:46;11.10;99.90
16513;DHT22;8369;48.030;11.598;2023-11-19T15:46:12;11.10;99.90
16513;DHT22;8369;48.030;11.598;2023-11-19T15:48:38;11.10;99.90
16513;DHT22;8369;48.030;11.598;2023-11-19T15:51:05;11.10;99.90
16513;DHT22;8369;48.030;11.598;2023-11-19T15:53:31;11.00;99.90
16513;DHT22;8369;48.030;11.598;2023-11-19T15:55:58;11.10;99.90
16513;DHT22;8369;48.030;11.598;2023-11-19T15:58:25;11.00;99.90
16513;DHT22;8369;48.030;11.598;2023-11-19T16:00:51;11.00;99.90